Time;durP1;ratioP1;P1;durP2;ratioP2;P2;SDS_P1;SDS_P2;PMS_P1;PMS_P2;Temp;Humidity;BMP_temperature;BMP_pressure;BME280_temperature;BME280_humidity;BME280_pressure;Samples;Min_cycle;Max_cycle;Signal;HPM_P1;HPM_P2
2021/10/02 00:41:04;;;;;;;5.80;5.20;;;14.90;87.30;;;;;;5032480;28;20262;-85
2021/10/02 00:46:22;;;;;;;8.03;6.53;;;14.80;88.00;;;;;;5032127;28;20240;-86
2021/10/02 00:48:48;;;;;;;7.40;6.40;;;14.80;89.40;;;;;;5017855;28;20253;-86
2021/10/02 00:51:14;;;;;;;7.43;6.73;;;14.70;88.50;;;;;;5035579;28;20193;-86
2021/10/02 00:53:40;;;;;;;8.57;7.47;;;14.60;88.70;;;;;;5055179;28;20245;-86
2021/10/02 00:56:05;;;;;;;7.73;5.90;;;14.60;89.10;;;;;;5021183;28;20194;-85
2021/10/02 00:58:32;;;;;;;7.73;5.80;;;14.70;89.00;;;;;;5033960;28;20201;-86
2021/10/02 01:01:02;;;;;;;6.23;5.63;;;14.80;87.50;;;;;;5034975;28;20242;-86
2021/10/02 01:03:55;;;;;;;7.03;6.33;;;14.90;87.40;;;;;;5032441;28;20199;-85
2021/10/02 01:06:33;;;;;;;5.80;5.27;;;14.90;87.20;;;;;;5032329;28;20196;-86
2021/10/02 01:09:08;;;;;;;8.00;5.77;;;15.00;86.50;;;;;;5033717;28;20196;-86
2021/10/02 01:12:00;;;;;;;6.43;5.83;;;15.00;87.00;;;;;;5013828;28;20707;-86
2021/10/02 01:14:31;;;;;;;7.00;6.40;;;15.10;87.20;;;;;;5027719;28;20205;-86
2021/10/02 01:17:07;;;;;;;7.03;6.10;;;15.10;87.30;;;;;;5009485;28;20202;-86
2021/10/02 01:19:41;;;;;;;6.10;5.50;;;15.10;87.50;;;;;;5027990;28;20628;-86
2021/10/02 01:22:34;;;;;;;6.53;5.93;;;15.10;88.70;;;;;;5030974;28;20181;-86
2021/10/02 01:25:27;;;;;;;6.67;5.90;;;15.10;88.30;;;;;;5030669;28;20276;-86
2021/10/02 01:28:14;;;;;;;6.70;6.03;;;15.20;88.40;;;;;;5011192;28;20208;-86
2021/10/02 01:33:39;;;;;;;6.87;6.27;;;15.00;87.90;;;;;;5028085;28;20223;-84
2021/10/02 01:36:48;;;;;;;6.73;6.07;;;14.80;88.90;;;;;;5030598;28;20607;-84
2021/10/02 01:47:52;;;;;;;6.97;5.17;;;14.40;89.20;;;;;;5037528;28;20197;-86
2021/10/02 01:50:24;;;;;;;5.73;5.23;;;14.40;89.70;;;;;;5041119;28;20693;-86
2021/10/02 01:52:51;;;;;;;5.63;4.93;;;14.50;88.90;;;;;;5040204;28;20253;-84
2021/10/02 01:55:18;;;;;;;6.83;5.37;;;14.60;88.90;;;;;;5053879;28;20195;-84
2021/10/02 01:58:00;;;;;;;5.97;5.37;;;14.70;88.50;;;;;;5054841;28;20274;-84
2021/10/02 02:00:27;;;;;;;5.73;5.03;;;14.70;86.70;;;;;;5060824;28;20679;-85
2021/10/02 02:02:56;;;;;;;5.93;4.73;;;14.60;86.80;;;;;;5040862;28;20193;-85
2021/10/02 02:05:25;;;;;;;6.00;5.30;;;14.60;87.50;;;;;;5039574;28;20229;-85
2021/10/02 02:07:55;;;;;;;6.80;5.30;;;14.70;88.10;;;;;;5037831;28;20591;-86
2021/10/02 02:10:23;;;;;;;5.47;4.90;;;14.80;88.50;;;;;;5033808;28;20226;-86
2021/10/02 02:12:50;;;;;;;5.70;5.10;;;14.80;87.80;;;;;;5029043;28;20252;-85
2021/10/02 02:15:17;;;;;;;5.30;4.80;;;14.90;87.40;;;;;;5020138;28;20203;-85
2021/10/02 02:17:51;;;;;;;5.80;5.30;;;14.90;87.40;;;;;;5020418;28;20190;-85
2021/10/02 02:20:22;;;;;;;5.63;5.13;;;14.90;87.60;;;;;;5036694;28;20245;-85
2021/10/02 02:22:49;;;;;;;5.13;4.63;;;15.10;86.90;;;;;;5035506;28;20216;-85
2021/10/02 02:25:15;;;;;;;4.73;4.33;;;15.10;86.10;;;;;;5020184;28;20545;-85
2021/10/02 02:27:41;;;;;;;5.17;4.70;;;15.10;85.50;;;;;;5035257;28;20209;-85
2021/10/02 02:30:07;;;;;;;6.03;5.43;;;15.10;85.00;;;;;;5017617;28;20220;-85
2021/10/02 02:32:34;;;;;;;5.10;4.63;;;15.10;85.90;;;;;;5035306;28;20196;-85
2021/10/02 02:35:00;;;;;;;4.80;4.40;;;15.10;86.70;;;;;;5036550;28;20683;-85
2021/10/02 02:37:25;;;;;;;5.77;5.23;;;15.10;86.50;;;;;;5035016;28;20276;-86
2021/10/02 02:39:51;;;;;;;5.43;4.80;;;15.10;86.10;;;;;;5035770;28;20688;-86
2021/10/02 02:42:17;;;;;;;5.77;5.27;;;15.00;86.50;;;;;;5016526;28;20200;-85
2021/10/02 02:44:43;;;;;;;5.80;4.87;;;14.90;86.80;;;;;;5026267;28;20193;-86
2021/10/02 02:47:14;;;;;;;5.30;4.90;;;14.90;87.00;;;;;;5025456;28;21152;-85
2021/10/02 02:49:59;;;;;;;6.33;4.97;;;14.80;86.00;;;;;;5041521;28;20573;-86
2021/10/02 02:52:33;;;;;;;6.13;5.50;;;14.90;86.20;;;;;;5035083;28;20188;-85
2021/10/02 02:55:07;;;;;;;6.47;5.10;;;14.90;86.30;;;;;;5032437;28;20203;-85
2021/10/02 02:57:43;;;;;;;6.87;4.70;;;14.90;86.50;;;;;;5033843;28;20200;-86
2021/10/02 03:00:13;;;;;;;7.13;5.13;;;15.00;86.30;;;;;;5033797;28;20221;-84
2021/10/02 03:02:44;;;;;;;4.83;4.37;;;15.00;86.20;;;;;;5031705;28;20208;-86
2021/10/02 03:05:10;;;;;;;5.00;4.50;;;14.90;86.90;;;;;;5031421;28;20184;-85
2021/10/02 03:07:42;;;;;;;4.87;4.47;;;14.80;86.60;;;;;;5033406;28;20272;-85
2021/10/02 03:10:11;;;;;;;4.80;4.50;;;14.80;87.00;;;;;;5044550;28;20212;-85
2021/10/02 03:12:41;;;;;;;5.03;4.60;;;14.90;87.30;;;;;;5033863;28;20203;-85
2021/10/02 03:15:11;;;;;;;5.47;4.83;;;15.00;86.00;;;;;;5032550;28;20287;-85
2021/10/02 03:17:37;;;;;;;5.20;4.73;;;15.00;86.30;;;;;;5034965;28;20181;-86
2021/10/02 03:20:06;;;;;;;5.83;5.00;;;14.90;86.60;;;;;;5032085;28;20217;-84
2021/10/02 03:22:33;;;;;;;4.80;4.23;;;14.80;87.20;;;;;;5041761;28;20191;-84
2021/10/02 03:25:00;;;;;;;4.60;4.20;;;14.80;87.10;;;;;;5049811;28;20299;-85
2021/10/02 03:27:28;;;;;;;4.73;4.33;;;14.90;86.50;;;;;;5051247;28;20185;-86
2021/10/02 03:29:55;;;;;;;6.37;4.73;;;14.90;85.50;;;;;;5049010;28;20246;-87
2021/10/02 03:32:23;;;;;;;6.67;4.40;;;14.90;85.30;;;;;;5019358;28;20194;-85
2021/10/02 03:34:51;;;;;;;5.30;4.80;;;14.90;85.90;;;;;;5022520;28;20203;-85
2021/10/02 03:37:17;;;;;;;9.40;4.80;;;14.90;86.10;;;;;;5017988;28;20547;-85
2021/10/02 03:39:43;;;;;;;4.93;4.50;;;14.80;86.40;;;;;;5035163;28;20220;-86
2021/10/02 03:42:10;;;;;;;5.30;4.20;;;14.80;87.30;;;;;;5018225;28;20689;-86
2021/10/02 03:44:39;;;;;;;5.13;4.73;;;14.80;87.00;;;;;;5041500;28;20185;-83
2021/10/02 03:47:05;;;;;;;5.10;4.60;;;14.80;86.00;;;;;;5053419;28;20173;-84
2021/10/02 03:49:30;;;;;;;5.40;4.90;;;14.70;87.10;;;;;;5038441;28;20200;-85
2021/10/02 03:51:56;;;;;;;5.10;3.77;;;14.60;87.80;;;;;;5056934;28;20205;-84
2021/10/02 03:54:22;;;;;;;5.10;4.00;;;14.60;87.90;;;;;;5049681;28;20200;-86
2021/10/02 03:56:48;;;;;;;4.60;4.20;;;14.60;87.40;;;;;;5038659;28;20291;-86
2021/10/02 03:59:13;;;;;;;5.00;4.50;;;14.70;87.30;;;;;;5035724;28;20213;-86
2021/10/02 04:01:39;;;;;;;4.57;4.07;;;14.60;87.50;;;;;;5031951;28;20217;-86
2021/10/02 04:04:05;;;;;;;4.80;4.30;;;14.50;87.60;;;;;;5034187;28;20221;-85
2021/10/02 04:06:30;;;;;;;4.40;4.00;;;14.60;88.50;;;;;;5032172;28;20192;-85
2021/10/02 04:08:56;;;;;;;5.87;4.20;;;14.60;87.50;;;;;;5030838;28;20248;-86
2021/10/02 04:11:21;;;;;;;4.53;4.00;;;14.60;87.00;;;;;;5029427;28;20731;-85
2021/10/02 04:13:47;;;;;;;4.27;3.83;;;14.60;86.30;;;;;;5037203;28;20281;-85
2021/10/02 04:16:13;;;;;;;8.07;3.80;;;14.60;86.40;;;;;;5032578;28;20856;-84
2021/10/02 04:18:38;;;;;;;4.27;3.87;;;14.60;86.40;;;;;;5011733;28;20204;-84
2021/10/02 04:21:04;;;;;;;5.37;4.20;;;14.50;86.00;;;;;;5025093;28;20224;-85
2021/10/02 04:23:30;;;;;;;5.37;4.37;;;14.40;86.00;;;;;;5024955;28;20534;-84
2021/10/02 04:25:57;;;;;;;5.77;4.17;;;14.30;86.40;;;;;;5029533;28;20675;-84
2021/10/02 04:28:22;;;;;;;4.90;4.03;;;14.20;87.00;;;;;;5029165;28;20191;-85
2021/10/02 04:30:49;;;;;;;4.70;4.30;;;14.20;87.00;;;;;;5013784;28;20238;-88
2021/10/02 04:33:16;;;;;;;4.53;4.13;;;14.10;88.00;;;;;;5039461;28;20199;-83
2021/10/02 04:35:41;;;;;;;4.37;3.97;;;14.30;88.70;;;;;;5018017;28;20557;-85
2021/10/02 04:38:07;;;;;;;4.20;3.80;;;14.30;88.90;;;;;;5030914;28;20196;-84
2021/10/02 04:40:33;;;;;;;4.50;4.20;;;14.30;89.10;;;;;;5029760;28;20219;-85
2021/10/02 04:42:59;;;;;;;4.17;3.80;;;14.30;88.90;;;;;;5028533;28;20204;-85
2021/10/02 04:45:25;;;;;;;4.90;4.50;;;14.40;89.40;;;;;;5040259;28;20187;-85
2021/10/02 04:47:50;;;;;;;4.50;4.00;;;14.50;88.50;;;;;;5053113;28;20207;-83
2021/10/02 04:50:17;;;;;;;4.47;4.07;;;14.40;88.70;;;;;;5036234;28;20269;-84
2021/10/02 04:52:43;;;;;;;6.17;3.97;;;14.40;88.20;;;;;;5031670;28;20184;-84
2021/10/02 04:55:09;;;;;;;5.00;3.70;;;14.50;87.70;;;;;;5031771;28;20621;-85
2021/10/02 04:57:35;;;;;;;4.87;3.70;;;14.50;87.50;;;;;;5011816;28;20241;-85
2021/10/02 05:00:01;;;;;;;4.70;3.90;;;14.50;88.00;;;;;;5028553;28;20216;-84
2021/10/02 05:02:27;;;;;;;7.60;4.20;;;14.50;87.90;;;;;;5029300;28;20664;-85
2021/10/02 05:04:52;;;;;;;3.93;3.53;;;14.40;87.60;;;;;;5030053;28;20222;-84
2021/10/02 05:07:18;;;;;;;3.50;3.20;;;14.30;87.70;;;;;;5008179;28;20189;-84
2021/10/02 05:09:44;;;;;;;3.57;3.23;;;14.30;87.80;;;;;;5019574;28;20200;-86
2021/10/02 05:12:10;;;;;;;3.10;2.90;;;14.40;87.80;;;;;;5014515;28;20197;-85
2021/10/02 05:14:38;;;;;;;5.70;3.80;;;14.50;87.60;;;;;;5037664;28;20211;-86
2021/10/02 05:17:05;;;;;;;4.13;3.73;;;14.40;86.80;;;;;;5044666;28;20189;-85
2021/10/02 05:19:33;;;;;;;4.77;3.57;;;14.40;86.90;;;;;;5032734;28;20212;-85
2021/10/02 05:21:59;;;;;;;3.83;3.30;;;14.30;87.30;;;;;;5032984;28;20225;-86
2021/10/02 05:24:25;;;;;;;4.40;4.00;;;14.20;87.40;;;;;;5036890;28;20193;-86
2021/10/02 05:26:50;;;;;;;4.63;3.53;;;14.10;88.00;;;;;;5035451;28;20605;-85
2021/10/02 05:29:16;;;;;;;3.90;3.60;;;14.00;88.30;;;;;;5032207;28;20219;-84
2021/10/02 05:31:42;;;;;;;4.40;3.70;;;14.00;88.70;;;;;;5032567;28;20223;-85
2021/10/02 05:34:07;;;;;;;5.17;3.67;;;14.00;88.30;;;;;;5042462;28;20244;-86
2021/10/02 05:36:33;;;;;;;5.30;3.50;;;14.00;87.90;;;;;;5032969;28;20268;-86
2021/10/02 05:38:59;;;;;;;4.23;3.83;;;14.00;87.20;;;;;;5013691;28;20697;-86
2021/10/02 05:41:25;;;;;;;5.77;3.80;;;14.00;87.60;;;;;;5032140;28;20204;-86
2021/10/02 05:43:50;;;;;;;3.50;3.20;;;14.00;88.10;;;;;;5012444;28;20198;-86
2021/10/02 05:46:16;;;;;;;3.97;3.60;;;14.00;87.40;;;;;;5039800;28;20227;-86
2021/10/02 05:48:42;;;;;;;4.50;3.30;;;14.00;87.30;;;;;;5041715;28;20188;-87
2021/10/02 05:51:09;;;;;;;4.27;3.90;;;14.00;87.70;;;;;;5033108;28;20206;-86
2021/10/02 05:53:35;;;;;;;4.33;3.93;;;13.90;87.20;;;;;;5014336;28;20232;-87
2021/10/02 05:56:00;;;;;;;4.33;3.93;;;13.90;87.30;;;;;;5031592;28;20578;-87
2021/10/02 05:58:26;;;;;;;4.23;3.63;;;13.80;87.80;;;;;;5033084;28;20201;-86
2021/10/02 06:00:52;;;;;;;3.73;3.30;;;13.90;87.50;;;;;;5032411;28;20349;-87
2021/10/02 06:03:18;;;;;;;3.97;3.67;;;13.90;87.80;;;;;;5011900;28;20204;-87
2021/10/02 06:05:43;;;;;;;4.00;3.27;;;13.90;86.90;;;;;;5033037;28;20220;-87
2021/10/02 06:08:09;;;;;;;6.47;4.17;;;13.90;87.20;;;;;;5032312;28;20192;-86
2021/10/02 06:10:35;;;;;;;3.60;3.30;;;13.90;86.80;;;;;;5031334;28;20279;-87
2021/10/02 06:13:00;;;;;;;4.87;3.47;;;14.00;86.50;;;;;;5014385;28;20214;-86
2021/10/02 06:15:26;;;;;;;3.60;3.20;;;13.90;86.80;;;;;;5033086;28;20208;-87
2021/10/02 06:17:53;;;;;;;3.73;3.33;;;13.70;88.10;;;;;;5032797;28;20234;-87
2021/10/02 06:20:20;;;;;;;4.10;3.57;;;13.60;87.40;;;;;;5048422;28;20263;-83
2021/10/02 06:22:46;;;;;;;4.03;3.30;;;13.70;88.20;;;;;;5030260;28;20187;-83
2021/10/02 06:25:13;;;;;;;4.90;3.53;;;13.70;87.60;;;;;;5035418;28;20215;-86
2021/10/02 06:27:39;;;;;;;4.23;3.80;;;13.80;87.30;;;;;;5033820;28;20724;-85
2021/10/02 06:30:07;;;;;;;4.40;3.60;;;13.80;86.90;;;;;;5034462;28;20210;-85
2021/10/02 06:32:33;;;;;;;6.47;4.10;;;13.90;87.20;;;;;;5031038;28;20245;-87
2021/10/02 06:34:59;;;;;;;4.17;3.73;;;13.80;87.20;;;;;;5010022;28;20224;-88
2021/10/02 06:37:24;;;;;;;4.10;3.70;;;13.90;87.40;;;;;;5029646;28;20224;-89
2021/10/02 06:39:50;;;;;;;6.17;3.60;;;13.80;87.50;;;;;;5043067;28;20299;-89
2021/10/02 06:42:16;;;;;;;4.90;3.53;;;13.80;87.60;;;;;;5029749;28;20247;-87
2021/10/02 06:44:42;;;;;;;4.40;3.67;;;13.90;87.70;;;;;;5030754;28;20599;-89
2021/10/02 06:47:08;;;;;;;4.10;3.70;;;13.90;87.60;;;;;;5034579;28;20191;-88
2021/10/02 06:49:33;;;;;;;3.83;3.43;;;13.90;87.30;;;;;;5041782;28;20200;-88
2021/10/02 06:51:59;;;;;;;4.00;3.60;;;14.00;87.30;;;;;;5040679;28;20889;-87
2021/10/02 06:54:25;;;;;;;3.77;3.47;;;14.00;87.30;;;;;;5017158;28;20242;-88
2021/10/02 06:56:50;;;;;;;4.23;3.50;;;14.10;87.00;;;;;;5032648;28;20276;-87
2021/10/02 06:59:16;;;;;;;5.27;4.07;;;14.10;87.60;;;;;;5029986;28;20212;-87
2021/10/02 07:01:42;;;;;;;6.27;4.37;;;14.10;87.50;;;;;;5033739;28;20289;-88
2021/10/02 07:04:09;;;;;;;4.50;4.10;;;14.10;88.20;;;;;;5035139;28;20729;-87
2021/10/02 07:06:35;;;;;;;4.63;4.20;;;14.20;87.80;;;;;;5013376;28;20196;-88
2021/10/02 07:09:01;;;;;;;4.60;3.90;;;14.30;87.80;;;;;;5033684;28;20271;-88
2021/10/02 07:11:26;;;;;;;4.10;3.70;;;14.40;88.10;;;;;;5049145;28;20216;-88
2021/10/02 07:13:52;;;;;;;4.70;4.20;;;14.40;88.30;;;;;;5011955;28;20201;-88
2021/10/02 07:16:18;;;;;;;4.10;3.77;;;14.40;88.20;;;;;;5006816;28;20210;-87
2021/10/02 07:18:46;;;;;;;4.50;4.10;;;14.40;88.00;;;;;;5034975;28;20192;-88
2021/10/02 07:21:12;;;;;;;4.57;4.23;;;14.50;87.80;;;;;;5039243;28;20217;-87
2021/10/02 07:23:38;;;;;;;5.00;4.60;;;14.50;87.90;;;;;;5039779;28;20203;-88
2021/10/02 07:26:06;;;;;;;6.40;5.80;;;14.60;87.90;;;;;;5033834;28;20339;-88
2021/10/02 07:28:32;;;;;;;5.37;4.87;;;14.60;87.70;;;;;;5036015;28;20202;-88
2021/10/02 07:30:57;;;;;;;5.60;4.90;;;14.60;87.70;;;;;;5034054;28;20216;-88
2021/10/02 07:33:23;;;;;;;5.43;4.93;;;14.60;86.90;;;;;;5032041;28;20551;-87
2021/10/02 07:35:49;;;;;;;4.37;3.97;;;14.70;86.90;;;;;;5034290;28;20204;-87
2021/10/02 07:38:14;;;;;;;5.70;5.20;;;14.80;86.40;;;;;;5016035;28;20200;-88
2021/10/02 07:40:40;;;;;;;7.60;5.03;;;14.80;86.70;;;;;;5032393;28;20244;-88
2021/10/02 07:43:07;;;;;;;8.80;5.63;;;14.90;86.20;;;;;;5033089;28;20681;-87
2021/10/02 07:45:34;;;;;;;6.93;6.33;;;14.80;86.30;;;;;;5033262;28;20585;-88
2021/10/02 07:48:01;;;;;;;6.63;5.93;;;14.80;85.70;;;;;;5032640;28;20198;-87
2021/10/02 07:50:27;;;;;;;7.90;5.87;;;14.90;84.80;;;;;;5036871;28;20234;-88
2021/10/02 07:52:56;;;;;;;7.20;6.47;;;14.90;85.50;;;;;;5031879;28;20198;-88
2021/10/02 07:55:24;;;;;;;6.13;5.53;;;14.90;87.00;;;;;;5034346;28;20684;-89
2021/10/02 07:57:50;;;;;;;6.50;5.63;;;14.90;87.40;;;;;;5034692;28;20290;-87
2021/10/02 08:00:19;;;;;;;6.40;5.80;;;15.00;86.90;;;;;;5015698;28;20384;-88
2021/10/02 08:02:49;;;;;;;8.73;6.07;;;15.00;87.20;;;;;;5035056;28;20719;-87
2021/10/02 08:05:15;;;;;;;6.73;5.70;;;14.90;88.30;;;;;;5037291;28;20628;-88
2021/10/02 08:07:44;;;;;;;8.50;6.03;;;15.00;88.60;;;;;;5040845;28;20226;-88
2021/10/02 08:10:11;;;;;;;7.30;6.20;;;15.00;88.50;;;;;;5017748;28;20266;-88
2021/10/02 08:12:37;;;;;;;7.70;6.90;;;15.10;89.30;;;;;;5030532;28;20225;-87
2021/10/02 08:15:04;;;;;;;9.60;7.13;;;15.10;87.30;;;;;;5030779;28;20941;-87
2021/10/02 08:17:33;;;;;;;9.10;7.47;;;15.00;87.00;;;;;;5034999;28;20191;-86
2021/10/02 08:20:05;;;;;;;7.53;6.93;;;15.20;85.40;;;;;;5026682;28;20217;-86
2021/10/02 08:22:31;;;;;;;7.77;6.97;;;15.30;87.00;;;;;;5029192;28;20190;-87
2021/10/02 08:24:58;;;;;;;7.80;6.57;;;15.30;87.10;;;;;;5015028;28;20205;-88
2021/10/02 08:27:28;;;;;;;7.00;6.30;;;15.50;86.00;;;;;;5036194;28;20347;-87
2021/10/02 08:29:54;;;;;;;8.73;7.13;;;15.40;84.50;;;;;;5033117;28;20224;-88
2021/10/02 08:32:20;;;;;;;7.23;6.53;;;15.40;84.90;;;;;;5031354;28;20234;-87
2021/10/02 08:34:46;;;;;;;6.00;5.27;;;15.30;84.40;;;;;;5035583;28;20216;-86
2021/10/02 08:37:12;;;;;;;7.00;6.40;;;15.40;85.00;;;;;;5018787;28;20215;-88
2021/10/02 08:39:37;;;;;;;7.00;5.80;;;15.70;83.20;;;;;;5033213;28;20219;-86
2021/10/02 08:42:03;;;;;;;10.23;6.20;;;15.80;82.80;;;;;;5048382;28;20484;-87
2021/10/02 08:44:31;;;;;;;6.37;5.63;;;15.90;82.90;;;;;;5048851;28;20215;-87
2021/10/02 08:46:58;;;;;;;6.33;5.60;;;16.00;81.80;;;;;;5042827;28;20350;-87
2021/10/02 08:49:26;;;;;;;6.47;5.87;;;16.10;83.30;;;;;;5035240;28;20290;-87
2021/10/02 08:51:52;;;;;;;5.70;5.17;;;16.40;80.30;;;;;;5036486;28;20744;-87
2021/10/02 08:54:19;;;;;;;6.30;5.20;;;16.50;77.00;;;;;;5034971;28;20223;-87
2021/10/02 08:56:46;;;;;;;6.03;5.20;;;16.50;79.20;;;;;;5033345;28;20280;-87
2021/10/02 08:59:15;;;;;;;5.47;4.97;;;16.50;78.00;;;;;;5036066;28;20222;-87
2021/10/02 09:01:41;;;;;;;6.70;5.03;;;16.80;76.00;;;;;;5036787;28;20222;-86
2021/10/02 09:04:07;;;;;;;5.27;4.77;;;17.00;75.20;;;;;;5034836;28;20626;-87
2021/10/02 09:06:34;;;;;;;8.80;4.70;;;16.90;76.90;;;;;;5037112;28;20231;-86
2021/10/02 09:09:00;;;;;;;5.30;4.80;;;17.00;76.70;;;;;;5016087;28;20197;-88
2021/10/02 09:11:27;;;;;;;6.30;4.70;;;17.10;74.90;;;;;;5033995;28;20222;-87
2021/10/02 09:13:53;;;;;;;5.00;4.60;;;17.20;75.00;;;;;;5017751;28;20208;-87
2021/10/02 09:16:20;;;;;;;5.93;4.83;;;17.50;73.10;;;;;;5035642;28;20199;-87
2021/10/02 09:18:46;;;;;;;5.20;4.70;;;17.50;73.80;;;;;;5034528;28;20285;-87
2021/10/02 09:21:12;;;;;;;6.33;4.70;;;17.60;74.70;;;;;;5015254;28;20218;-88
2021/10/02 09:23:43;;;;;;;5.75;4.90;;;17.80;75.00;;;;;;5038853;28;20199;-88
2021/10/02 09:26:10;;;;;;;5.47;4.97;;;18.00;73.80;;;;;;5022781;28;20526;-87
2021/10/02 09:28:43;;;;;;;5.50;4.35;;;18.20;72.70;;;;;;5022723;28;20273;-86
2021/10/02 09:31:10;;;;;;;4.82;4.00;;;18.30;71.20;;;;;;5030943;28;20745;-88
2021/10/02 09:33:36;;;;;;;6.25;5.18;;;18.40;68.50;;;;;;5023100;28;20690;-88
2021/10/02 09:36:03;;;;;;;8.48;4.43;;;18.60;68.30;;;;;;5038000;28;20217;-88
2021/10/02 09:38:32;;;;;;;5.25;4.28;;;18.70;68.40;;;;;;5036962;28;20192;-88
2021/10/02 09:41:01;;;;;;;5.40;4.55;;;18.90;69.00;;;;;;5037563;28;20278;-88
2021/10/02 09:43:29;;;;;;;4.50;4.10;;;18.90;69.20;;;;;;5040030;28;20189;-88
2021/10/02 09:45:55;;;;;;;5.10;4.53;;;18.90;68.40;;;;;;5037886;28;20192;-88
2021/10/02 09:48:31;;;;;;;5.80;4.28;;;19.20;66.00;;;;;;5039113;28;20184;-89
2021/10/02 09:51:04;;;;;;;4.72;4.03;;;19.30;66.40;;;;;;5039615;28;20240;-88
2021/10/02 09:53:37;;;;;;;5.07;3.85;;;19.40;65.60;;;;;;5020842;28;20193;-89
2021/10/02 09:56:08;;;;;;;4.47;3.95;;;19.70;64.60;;;;;;5019331;28;20577;-89
2021/10/02 09:58:36;;;;;;;3.53;3.22;;;19.90;63.90;;;;;;5034119;28;20193;-89
2021/10/02 10:01:04;;;;;;;3.70;3.40;;;19.70;59.50;;;;;;5030701;28;20242;-88
2021/10/02 10:03:44;;;;;;;4.75;3.22;;;19.90;58.90;;;;;;5021625;28;20243;-89
2021/10/02 10:06:28;;;;;;;4.50;3.17;;;20.00;59.00;;;;;;5037959;28;20196;-89
2021/10/02 10:09:12;;;;;;;4.80;3.80;;;19.80;58.40;;;;;;5038956;28;20189;-88
2021/10/02 10:11:49;;;;;;;3.33;3.03;;;19.80;58.30;;;;;;5038395;28;20208;-89
2021/10/02 10:14:23;;;;;;;3.72;3.42;;;20.00;56.70;;;;;;5021675;28;20205;-89
2021/10/02 10:16:51;;;;;;;3.83;3.33;;;20.30;58.10;;;;;;5036977;28;20211;-89
2021/10/02 10:19:20;;;;;;;4.80;3.70;;;20.50;56.10;;;;;;5038421;28;20304;-89
2021/10/02 10:22:23;;;;;;;3.30;3.00;;;20.70;55.20;;;;;;5031141;28;20210;-88
2021/10/02 10:24:54;;;;;;;4.80;2.78;;;21.00;54.10;;;;;;5040343;28;20196;-89
2021/10/02 10:27:42;;;;;;;3.28;2.97;;;21.00;55.00;;;;;;5046416;28;20193;-88
2021/10/02 10:30:18;;;;;;;3.83;2.92;;;21.30;51.00;;;;;;5045130;28;20205;-88
2021/10/02 10:33:14;;;;;;;4.60;3.05;;;21.30;52.20;;;;;;5046023;28;20200;-87
2021/10/02 10:35:49;;;;;;;3.30;3.00;;;21.50;50.60;;;;;;5032312;28;20791;-89
2021/10/02 10:38:22;;;;;;;4.00;3.20;;;21.50;50.20;;;;;;5035160;28;20188;-90
2021/10/02 10:40:48;;;;;;;3.90;2.97;;;21.60;52.40;;;;;;5033067;28;20222;-89
2021/10/02 10:43:14;;;;;;;4.03;3.08;;;21.70;52.60;;;;;;5039506;28;20179;-88
2021/10/02 10:45:42;;;;;;;3.53;3.20;;;21.60;50.20;;;;;;5050636;28;20210;-89
2021/10/02 10:48:09;;;;;;;4.03;3.30;;;21.50;51.40;;;;;;5047393;28;20194;-90
2021/10/02 10:50:37;;;;;;;3.65;3.35;;;21.60;51.00;;;;;;5035368;28;20645;-89
2021/10/02 10:53:04;;;;;;;3.33;3.03;;;21.60;52.50;;;;;;5042823;28;20229;-89
2021/10/02 10:55:31;;;;;;;6.38;3.47;;;21.80;51.50;;;;;;5047056;28;20195;-90
2021/10/02 10:57:59;;;;;;;3.90;3.33;;;21.60;53.00;;;;;;5046229;28;20169;-89
2021/10/02 11:00:31;;;;;;;4.68;3.55;;;21.70;52.20;;;;;;5019390;28;20215;-89
2021/10/02 11:03:07;;;;;;;4.82;4.10;;;22.10;51.20;;;;;;5036252;28;20206;-88
2021/10/02 11:05:36;;;;;;;3.90;3.40;;;22.10;49.20;;;;;;5017685;28;20213;-89
2021/10/02 11:08:15;;;;;;;4.15;3.75;;;22.10;51.30;;;;;;5035240;28;20192;-88
2021/10/02 11:10:44;;;;;;;3.80;3.50;;;22.10;50.70;;;;;;5021024;28;20232;-89
2021/10/02 11:13:13;;;;;;;5.15;3.70;;;22.30;50.50;;;;;;5033704;28;20210;-89
2021/10/02 11:15:43;;;;;;;4.43;3.63;;;22.30;50.00;;;;;;5036261;28;20657;-89
2021/10/02 11:18:43;;;;;;;3.88;3.55;;;22.40;50.80;;;;;;5026542;28;20200;-88
2021/10/02 11:21:12;;;;;;;3.70;3.30;;;22.50;48.70;;;;;;5021760;28;20760;-88
2021/10/02 11:24:00;;;;;;;5.22;3.63;;;22.20;48.40;;;;;;5020902;28;20192;-88
2021/10/02 11:26:46;;;;;;;4.70;3.85;;;22.10;49.10;;;;;;5015684;28;20287;-88
2021/10/02 11:29:31;;;;;;;5.05;3.33;;;22.30;50.10;;;;;;4986988;28;20543;-88
2021/10/02 11:32:21;;;;;;;4.70;3.95;;;22.20;49.40;;;;;;5036882;28;20224;-87
2021/10/02 11:35:14;;;;;;;3.70;3.40;;;22.00;48.70;;;;;;5031418;28;20205;-87
2021/10/02 11:37:42;;;;;;;3.97;3.60;;;22.30;49.40;;;;;;5035302;28;20192;-87
2021/10/02 11:40:36;;;;;;;5.55;3.75;;;22.50;49.10;;;;;;5016994;28;20226;-87
2021/10/02 11:43:18;;;;;;;4.13;3.30;;;22.60;48.60;;;;;;5017548;28;20562;-87
2021/10/02 11:45:43;;;;;;;5.15;3.35;;;22.70;47.90;;;;;;5047692;28;20179;-87
2021/10/02 11:48:18;;;;;;;4.18;3.78;;;22.70;50.20;;;;;;5013338;28;20910;-86
2021/10/02 11:51:11;;;;;;;3.53;3.22;;;22.60;48.30;;;;;;5012724;28;20236;-86
2021/10/02 11:53:45;;;;;;;4.18;3.22;;;22.60;48.90;;;;;;5026734;28;20232;-88
2021/10/02 11:56:21;;;;;;;3.67;3.35;;;22.00;47.90;;;;;;5029046;28;20819;-86
2021/10/02 11:58:52;;;;;;;4.10;3.22;;;21.80;48.90;;;;;;5005144;28;20299;-86
2021/10/02 12:01:29;;;;;;;3.50;3.30;;;22.10;47.60;;;;;;5022980;28;20212;-86
2021/10/02 12:04:04;;;;;;;3.88;3.58;;;22.50;49.40;;;;;;5011776;28;20184;-86
2021/10/02 12:06:32;;;;;;;7.90;3.60;;;22.60;46.70;;;;;;5026259;28;20271;-86
2021/10/02 12:08:58;;;;;;;3.92;3.60;;;22.60;47.60;;;;;;5030156;28;20196;-87
2021/10/02 12:11:25;;;;;;;4.72;3.75;;;22.30;47.50;;;;;;5030165;28;20209;-86
2021/10/02 12:13:53;;;;;;;5.32;3.80;;;22.30;47.20;;;;;;5033537;28;20722;-87
2021/10/02 12:16:30;;;;;;;4.25;3.70;;;22.30;48.10;;;;;;5033488;28;20177;-87
2021/10/02 12:19:08;;;;;;;5.40;3.75;;;22.50;47.50;;;;;;5032089;28;20885;-87
2021/10/02 12:21:36;;;;;;;3.85;3.55;;;23.00;47.00;;;;;;5033879;28;20212;-87
2021/10/02 12:24:12;;;;;;;4.45;3.45;;;23.60;46.30;;;;;;5035046;28;20194;-87
2021/10/02 12:26:40;;;;;;;4.38;3.40;;;23.90;45.70;;;;;;5033623;28;20191;-87
2021/10/02 12:29:08;;;;;;;3.70;3.40;;;24.20;42.40;;;;;;5033254;28;20189;-87
2021/10/02 12:31:47;;;;;;;3.40;3.10;;;24.30;43.80;;;;;;5045252;28;20204;-86
2021/10/02 12:34:36;;;;;;;3.40;3.20;;;24.10;41.20;;;;;;5039704;28;20199;-87
2021/10/02 12:37:04;;;;;;;4.13;3.53;;;24.20;41.30;;;;;;5015169;28;20653;-86
2021/10/02 12:39:35;;;;;;;4.47;2.95;;;24.70;39.60;;;;;;5035557;28;20324;-87
2021/10/02 12:42:00;;;;;;;7.05;3.50;;;24.80;38.60;;;;;;5037154;28;20825;-88
2021/10/02 12:44:36;;;;;;;4.97;3.47;;;24.50;40.90;;;;;;5039800;28;20193;-87
2021/10/02 12:47:04;;;;;;;3.97;3.53;;;24.30;41.90;;;;;;5031705;28;20215;-87
2021/10/02 12:49:40;;;;;;;4.03;3.22;;;24.80;41.70;;;;;;5031138;28;20677;-88
2021/10/02 12:52:06;;;;;;;4.60;3.85;;;25.00;40.10;;;;;;5014587;28;20220;-87
2021/10/02 12:54:32;;;;;;;3.88;3.58;;;25.00;39.90;;;;;;5030243;28;20281;-87
2021/10/02 12:57:02;;;;;;;4.15;3.75;;;25.00;40.10;;;;;;5012880;28;20192;-87
2021/10/02 12:59:46;;;;;;;4.00;3.60;;;25.10;39.90;;;;;;4997658;28;20225;-86
2021/10/02 13:02:13;;;;;;;3.50;3.20;;;25.10;39.50;;;;;;5033143;28;20177;-87
2021/10/02 13:04:39;;;;;;;4.20;3.80;;;25.00;39.90;;;;;;5013519;28;20227;-86
2021/10/02 13:07:06;;;;;;;3.78;3.40;;;25.00;41.70;;;;;;5012817;28;20193;-88
2021/10/02 13:09:58;;;;;;;3.70;3.40;;;24.90;40.00;;;;;;5017804;28;20189;-86
2021/10/02 13:12:34;;;;;;;3.65;3.15;;;25.00;38.90;;;;;;5033958;28;20235;-86
2021/10/02 13:15:02;;;;;;;4.50;3.65;;;24.90;40.30;;;;;;5033599;28;20262;-86
2021/10/02 13:17:28;;;;;;;3.70;3.40;;;24.80;41.10;;;;;;5034356;28;20276;-86
2021/10/02 13:20:12;;;;;;;4.13;3.72;;;24.50;40.10;;;;;;5036828;28;20240;-86
2021/10/02 13:22:47;;;;;;;4.32;3.92;;;24.70;39.70;;;;;;5037776;28;20189;-86
2021/10/02 13:25:25;;;;;;;3.75;3.42;;;24.70;39.60;;;;;;5019894;28;20192;-87
2021/10/02 13:27:54;;;;;;;3.92;3.63;;;24.80;41.10;;;;;;5041324;28;20200;-88
2021/10/02 13:30:29;;;;;;;5.20;4.00;;;25.10;41.00;;;;;;5040510;28;20304;-87
2021/10/02 13:33:07;;;;;;;3.75;3.45;;;25.20;41.50;;;;;;5032517;28;20609;-88
2021/10/02 13:35:38;;;;;;;3.85;3.55;;;24.80;41.30;;;;;;5036658;28;20289;-88
2021/10/02 13:38:08;;;;;;;3.97;3.67;;;25.00;42.40;;;;;;5038254;28;20197;-88
2021/10/02 13:40:55;;;;;;;4.10;3.67;;;25.20;40.90;;;;;;5042719;28;20220;-88
2021/10/02 13:43:21;;;;;;;5.05;4.00;;;25.50;40.10;;;;;;5031310;28;20254;-88
2021/10/02 13:45:52;;;;;;;4.15;3.63;;;25.40;41.20;;;;;;5013120;28;20201;-88
2021/10/02 13:48:25;;;;;;;3.80;3.50;;;25.70;40.30;;;;;;5031017;28;20193;-89
2021/10/02 13:50:52;;;;;;;4.55;4.07;;;26.10;40.00;;;;;;5031459;28;20216;-88
2021/10/02 13:53:17;;;;;;;4.32;3.95;;;26.60;38.00;;;;;;5013384;28;20259;-87
2021/10/02 13:55:43;;;;;;;4.00;3.63;;;26.70;38.40;;;;;;5038691;28;20578;-88